sensor_id;sensor_type;location;lat;lon;timestamp;temperature;humidity
21393;DHT22;10857;52.228;21.026;2023-05-13T00:01:51;15.20;88.50
21393;DHT22;10857;52.228;21.026;2023-05-13T00:04:21;15.10;90.00
21393;DHT22;10857;52.228;21.026;2023-05-13T00:06:49;15.10;90.20
21393;DHT22;10857;52.228;21.026;2023-05-13T00:09:21;15.10;89.60
21393;DHT22;10857;52.228;21.026;2023-05-13T00:11:50;15.10;90.10
21393;DHT22;10857;52.228;21.026;2023-05-13T00:14:17;15.10;90.00
21393;DHT22;10857;52.228;21.026;2023-05-13T00:16:50;15.10;90.00
21393;DHT22;10857;52.228;21.026;2023-05-13T00:19:17;15.00;90.10
21393;DHT22;10857;52.228;21.026;2023-05-13T00:21:46;15.00;90.30
21393;DHT22;10857;52.228;21.026;2023-05-13T00:24:13;15.00;90.40
21393;DHT22;10857;52.228;21.026;2023-05-13T00:26:46;15.00;90.10
21393;DHT22;10857;52.228;21.026;2023-05-13T00:29:28;15.00;90.30
21393;DHT22;10857;52.228;21.026;2023-05-13T00:31:59;15.00;90.90
21393;DHT22;10857;52.228;21.026;2023-05-13T00:34:34;14.90;90.70
21393;DHT22;10857;52.228;21.026;2023-05-13T00:37:01;14.90;90.60
21393;DHT22;10857;52.228;21.026;2023-05-13T00:39:39;14.90;90.60
21393;DHT22;10857;52.228;21.026;2023-05-13T00:42:12;14.90;90.70
21393;DHT22;10857;52.228;21.026;2023-05-13T00:45:00;14.90;90.70
21393;DHT22;10857;52.228;21.026;2023-05-13T00:47:27;14.90;90.80
21393;DHT22;10857;52.228;21.026;2023-05-13T00:49:56;14.90;91.60
21393;DHT22;10857;52.228;21.026;2023-05-13T00:52:35;14.80;91.80
21393;DHT22;10857;52.228;21.026;2023-05-13T00:55:10;14.80;92.00
21393;DHT22;10857;52.228;21.026;2023-05-13T00:57:54;14.70;92.10
21393;DHT22;10857;52.228;21.026;2023-05-13T01:00:32;14.80;92.00
21393;DHT22;10857;52.228;21.026;2023-05-13T01:03:20;14.70;92.00
21393;DHT22;10857;52.228;21.026;2023-05-13T01:06:05;14.80;91.80
21393;DHT22;10857;52.228;21.026;2023-05-13T01:09:02;14.80;92.00
21393;DHT22;10857;52.228;21.026;2023-05-13T01:11:40;14.80;91.60
21393;DHT22;10857;52.228;21.026;2023-05-13T01:14:27;14.70;92.30
21393;DHT22;10857;52.228;21.026;2023-05-13T01:17:17;14.70;92.30
21393;DHT22;10857;52.228;21.026;2023-05-13T01:19:55;14.70;92.00
21393;DHT22;10857;52.228;21.026;2023-05-13T01:22:33;14.70;91.80
21393;DHT22;10857;52.228;21.026;2023-05-13T01:25:02;14.70;92.30
21393;DHT22;10857;52.228;21.026;2023-05-13T01:27:37;14.60;92.30
21393;DHT22;10857;52.228;21.026;2023-05-13T01:30:23;14.60;92.50
21393;DHT22;10857;52.228;21.026;2023-05-13T01:33:05;14.50;92.80
21393;DHT22;10857;52.228;21.026;2023-05-13T01:35:45;14.50;92.90
21393;DHT22;10857;52.228;21.026;2023-05-13T01:38:21;14.50;93.00
21393;DHT22;10857;52.228;21.026;2023-05-13T01:41:30;14.40;93.00
21393;DHT22;10857;52.228;21.026;2023-05-13T01:44:05;14.40;93.20
21393;DHT22;10857;52.228;21.026;2023-05-13T01:46:41;14.30;93.50
21393;DHT22;10857;52.228;21.026;2023-05-13T01:49:20;14.30;93.60
21393;DHT22;10857;52.228;21.026;2023-05-13T01:51:52;14.30;94.10
21393;DHT22;10857;52.228;21.026;2023-05-13T01:54:39;14.30;94.30
21393;DHT22;10857;52.228;21.026;2023-05-13T01:57:13;14.20;94.60
21393;DHT22;10857;52.228;21.026;2023-05-13T01:59:42;14.20;94.90
21393;DHT22;10857;52.228;21.026;2023-05-13T02:02:27;14.10;95.10
21393;DHT22;10857;52.228;21.026;2023-05-13T02:05:03;14.10;95.20
21393;DHT22;10857;52.228;21.026;2023-05-13T02:07:52;14.10;95.20
21393;DHT22;10857;52.228;21.026;2023-05-13T02:10:28;14.00;95.50
21393;DHT22;10857;52.228;21.026;2023-05-13T02:13:27;14.00;95.80
21393;DHT22;10857;52.228;21.026;2023-05-13T02:16:16;14.00;96.20
21393;DHT22;10857;52.228;21.026;2023-05-13T02:18:54;14.00;96.60
21393;DHT22;10857;52.228;21.026;2023-05-13T02:21:41;13.90;97.20
21393;DHT22;10857;52.228;21.026;2023-05-13T02:28:25;13.90;97.50
21393;DHT22;10857;52.228;21.026;2023-05-13T02:31:01;13.90;97.80
21393;DHT22;10857;52.228;21.026;2023-05-13T02:33:31;13.90;98.20
21393;DHT22;10857;52.228;21.026;2023-05-13T02:36:18;13.90;98.60
21393;DHT22;10857;52.228;21.026;2023-05-13T02:38:47;13.80;99.30
21393;DHT22;10857;52.228;21.026;2023-05-13T02:41:40;13.80;99.90
21393;DHT22;10857;52.228;21.026;2023-05-13T02:44:09;13.70;99.90
21393;DHT22;10857;52.228;21.026;2023-05-13T02:46:39;13.70;99.90
21393;DHT22;10857;52.228;21.026;2023-05-13T02:49:10;13.70;99.90
21393;DHT22;10857;52.228;21.026;2023-05-13T02:51:42;13.70;99.90
21393;DHT22;10857;52.228;21.026;2023-05-13T02:54:30;13.60;99.90
21393;DHT22;10857;52.228;21.026;2023-05-13T02:57:01;13.60;99.90
21393;DHT22;10857;52.228;21.026;2023-05-13T02:59:30;13.60;99.90
21393;DHT22;10857;52.228;21.026;2023-05-13T03:02:06;13.70;99.90
21393;DHT22;10857;52.228;21.026;2023-05-13T03:04:35;13.60;99.90
21393;DHT22;10857;52.228;21.026;2023-05-13T03:07:05;13.60;99.90
21393;DHT22;10857;52.228;21.026;2023-05-13T03:09:33;13.60;99.90
21393;DHT22;10857;52.228;21.026;2023-05-13T03:12:06;13.70;99.90
21393;DHT22;10857;52.228;21.026;2023-05-13T03:14:34;13.70;99.90
21393;DHT22;10857;52.228;21.026;2023-05-13T03:17:05;13.60;99.90
21393;DHT22;10857;52.228;21.026;2023-05-13T03:20:04;13.70;99.90
21393;DHT22;10857;52.228;21.026;2023-05-13T03:22:36;13.60;99.90
21393;DHT22;10857;52.228;21.026;2023-05-13T03:25:12;13.30;99.90
21393;DHT22;10857;52.228;21.026;2023-05-13T03:27:53;13.40;99.90
21393;DHT22;10857;52.228;21.026;2023-05-13T03:30:44;13.30;99.90
21393;DHT22;10857;52.228;21.026;2023-05-13T03:33:50;13.40;99.90
21393;DHT22;10857;52.228;21.026;2023-05-13T03:36:27;13.50;99.90
21393;DHT22;10857;52.228;21.026;2023-05-13T03:39:06;13.60;99.90
21393;DHT22;10857;52.228;21.026;2023-05-13T03:41:46;13.70;99.90
21393;DHT22;10857;52.228;21.026;2023-05-13T03:44:26;13.70;99.90
21393;DHT22;10857;52.228;21.026;2023-05-13T03:46:57;13.70;99.90
21393;DHT22;10857;52.228;21.026;2023-05-13T03:49:42;13.70;99.90
21393;DHT22;10857;52.228;21.026;2023-05-13T03:52:39;13.70;99.90
21393;DHT22;10857;52.228;21.026;2023-05-13T03:55:29;13.70;99.90
21393;DHT22;10857;52.228;21.026;2023-05-13T03:58:19;13.70;99.90
21393;DHT22;10857;52.228;21.026;2023-05-13T04:00:54;13.70;99.90
21393;DHT22;10857;52.228;21.026;2023-05-13T04:03:26;13.70;99.90
21393;DHT22;10857;52.228;21.026;2023-05-13T04:06:00;13.70;99.90
21393;DHT22;10857;52.228;21.026;2023-05-13T04:09:00;13.70;99.90
21393;DHT22;10857;52.228;21.026;2023-05-13T04:11:52;13.70;99.90
21393;DHT22;10857;52.228;21.026;2023-05-13T04:14:26;13.70;99.90
21393;DHT22;10857;52.228;21.026;2023-05-13T04:16:59;13.70;99.90
21393;DHT22;10857;52.228;21.026;2023-05-13T04:19:42;13.70;99.90
21393;DHT22;10857;52.228;21.026;2023-05-13T04:22:13;13.70;99.90
21393;DHT22;10857;52.228;21.026;2023-05-13T04:24:49;13.60;99.90
21393;DHT22;10857;52.228;21.026;2023-05-13T04:27:24;13.60;99.90
21393;DHT22;10857;52.228;21.026;2023-05-13T04:30:18;13.50;99.90
21393;DHT22;10857;52.228;21.026;2023-05-13T04:32:53;13.50;99.90
21393;DHT22;10857;52.228;21.026;2023-05-13T04:35:28;13.60;99.90
21393;DHT22;10857;52.228;21.026;2023-05-13T04:38:05;13.60;99.90
21393;DHT22;10857;52.228;21.026;2023-05-13T04:40:35;13.70;99.90
21393;DHT22;10857;52.228;21.026;2023-05-13T04:43:12;13.80;99.90
21393;DHT22;10857;52.228;21.026;2023-05-13T04:45:51;13.80;99.90
21393;DHT22;10857;52.228;21.026;2023-05-13T04:48:27;13.80;99.90
21393;DHT22;10857;52.228;21.026;2023-05-13T04:50:59;13.80;99.90
21393;DHT22;10857;52.228;21.026;2023-05-13T04:53:42;13.90;99.90
21393;DHT22;10857;52.228;21.026;2023-05-13T04:56:50;13.90;99.90
21393;DHT22;10857;52.228;21.026;2023-05-13T04:59:25;14.00;99.90
21393;DHT22;10857;52.228;21.026;2023-05-13T05:02:00;14.10;99.90
21393;DHT22;10857;52.228;21.026;2023-05-13T05:04:53;14.20;99.90
21393;DHT22;10857;52.228;21.026;2023-05-13T05:07:38;14.40;99.90
21393;DHT22;10857;52.228;21.026;2023-05-13T05:10:47;14.50;99.90
21393;DHT22;10857;52.228;21.026;2023-05-13T05:13:16;14.70;99.90
21393;DHT22;10857;52.228;21.026;2023-05-13T05:16:09;14.80;99.90
21393;DHT22;10857;52.228;21.026;2023-05-13T05:18:55;14.90;99.90
21393;DHT22;10857;52.228;21.026;2023-05-13T05:22:02;14.80;99.90
21393;DHT22;10857;52.228;21.026;2023-05-13T05:25:19;15.10;99.90
21393;DHT22;10857;52.228;21.026;2023-05-13T05:28:10;15.10;99.90
21393;DHT22;10857;52.228;21.026;2023-05-13T05:30:50;15.20;99.90
21393;DHT22;10857;52.228;21.026;2023-05-13T05:33:32;15.30;99.90
21393;DHT22;10857;52.228;21.026;2023-05-13T05:36:08;15.30;99.90
21393;DHT22;10857;52.228;21.026;2023-05-13T05:38:43;15.50;99.90
21393;DHT22;10857;52.228;21.026;2023-05-13T05:41:14;15.60;99.90
21393;DHT22;10857;52.228;21.026;2023-05-13T05:43:48;15.60;99.90
21393;DHT22;10857;52.228;21.026;2023-05-13T05:46:27;15.70;99.90
21393;DHT22;10857;52.228;21.026;2023-05-13T05:49:01;15.90;99.90
21393;DHT22;10857;52.228;21.026;2023-05-13T05:51:49;15.90;99.90
21393;DHT22;10857;52.228;21.026;2023-05-13T05:54:29;15.70;99.90
21393;DHT22;10857;52.228;21.026;2023-05-13T05:57:12;15.80;99.90
21393;DHT22;10857;52.228;21.026;2023-05-13T05:59:47;15.90;99.90
21393;DHT22;10857;52.228;21.026;2023-05-13T06:02:34;15.90;99.90
21393;DHT22;10857;52.228;21.026;2023-05-13T06:05:12;16.00;99.90
21393;DHT22;10857;52.228;21.026;2023-05-13T06:07:46;16.10;99.90
21393;DHT22;10857;52.228;21.026;2023-05-13T06:10:40;16.10;99.90
21393;DHT22;10857;52.228;21.026;2023-05-13T06:13:10;16.30;99.90
21393;DHT22;10857;52.228;21.026;2023-05-13T06:15:44;16.30;99.90
21393;DHT22;10857;52.228;21.026;2023-05-13T06:18:15;16.40;99.90
21393;DHT22;10857;52.228;21.026;2023-05-13T06:20:46;16.50;99.90
21393;DHT22;10857;52.228;21.026;2023-05-13T06:23:18;16.50;99.90
21393;DHT22;10857;52.228;21.026;2023-05-13T06:25:50;16.60;99.90
21393;DHT22;10857;52.228;21.026;2023-05-13T06:28:43;16.60;99.90
21393;DHT22;10857;52.228;21.026;2023-05-13T06:31:13;16.60;99.90
21393;DHT22;10857;52.228;21.026;2023-05-13T06:33:45;16.80;99.90
21393;DHT22;10857;52.228;21.026;2023-05-13T06:36:24;16.80;99.90
21393;DHT22;10857;52.228;21.026;2023-05-13T06:38:55;17.00;99.90
21393;DHT22;10857;52.228;21.026;2023-05-13T06:41:26;17.10;99.90
21393;DHT22;10857;52.228;21.026;2023-05-13T06:44:18;17.10;99.90
21393;DHT22;10857;52.228;21.026;2023-05-13T06:46:46;17.30;99.90
21393;DHT22;10857;52.228;21.026;2023-05-13T06:49:18;17.40;99.90
21393;DHT22;10857;52.228;21.026;2023-05-13T06:51:50;17.50;99.80
21393;DHT22;10857;52.228;21.026;2023-05-13T06:54:17;17.40;99.80
21393;DHT22;10857;52.228;21.026;2023-05-13T06:56:43;17.50;98.20
21393;DHT22;10857;52.228;21.026;2023-05-13T06:59:11;17.60;96.50
21393;DHT22;10857;52.228;21.026;2023-05-13T07:01:38;17.60;95.50
21393;DHT22;10857;52.228;21.026;2023-05-13T07:04:11;17.80;95.40
21393;DHT22;10857;52.228;21.026;2023-05-13T07:06:42;17.70;95.40
21393;DHT22;10857;52.228;21.026;2023-05-13T07:09:12;17.80;95.60
21393;DHT22;10857;52.228;21.026;2023-05-13T07:11:40;17.90;96.30
21393;DHT22;10857;52.228;21.026;2023-05-13T07:14:12;18.00;96.50
21393;DHT22;10857;52.228;21.026;2023-05-13T07:16:43;18.00;96.10
21393;DHT22;10857;52.228;21.026;2023-05-13T07:19:14;18.10;95.80
21393;DHT22;10857;52.228;21.026;2023-05-13T07:21:43;18.30;96.00
21393;DHT22;10857;52.228;21.026;2023-05-13T07:24:11;18.40;95.80
21393;DHT22;10857;52.228;21.026;2023-05-13T07:26:39;18.60;95.00
21393;DHT22;10857;52.228;21.026;2023-05-13T07:29:08;18.70;94.40
21393;DHT22;10857;52.228;21.026;2023-05-13T07:31:38;18.80;94.00
21393;DHT22;10857;52.228;21.026;2023-05-13T07:34:14;18.80;94.00
21393;DHT22;10857;52.228;21.026;2023-05-13T07:36:54;18.70;94.30
21393;DHT22;10857;52.228;21.026;2023-05-13T07:39:47;18.90;93.80
21393;DHT22;10857;52.228;21.026;2023-05-13T07:42:38;18.90;93.90
21393;DHT22;10857;52.228;21.026;2023-05-13T07:45:14;19.00;93.40
21393;DHT22;10857;52.228;21.026;2023-05-13T07:47:52;19.20;93.90
21393;DHT22;10857;52.228;21.026;2023-05-13T07:50:25;19.30;93.30
21393;DHT22;10857;52.228;21.026;2023-05-13T07:52:54;19.20;93.00
21393;DHT22;10857;52.228;21.026;2023-05-13T07:55:45;19.20;92.80
21393;DHT22;10857;52.228;21.026;2023-05-13T07:58:27;19.30;93.00
21393;DHT22;10857;52.228;21.026;2023-05-13T08:01:07;19.40;91.60
21393;DHT22;10857;52.228;21.026;2023-05-13T08:03:51;19.60;92.10
21393;DHT22;10857;52.228;21.026;2023-05-13T08:06:24;19.70;91.90
21393;DHT22;10857;52.228;21.026;2023-05-13T08:08:58;19.70;90.90
21393;DHT22;10857;52.228;21.026;2023-05-13T08:12:21;19.80;90.40
21393;DHT22;10857;52.228;21.026;2023-05-13T08:14:57;20.00;90.40
21393;DHT22;10857;52.228;21.026;2023-05-13T08:17:57;20.10;89.40
21393;DHT22;10857;52.228;21.026;2023-05-13T08:20:35;20.00;87.10
21393;DHT22;10857;52.228;21.026;2023-05-13T08:23:07;20.00;85.90
21393;DHT22;10857;52.228;21.026;2023-05-13T08:25:39;20.10;84.40
21393;DHT22;10857;52.228;21.026;2023-05-13T08:28:07;20.10;85.70
21393;DHT22;10857;52.228;21.026;2023-05-13T08:30:50;20.30;86.00
21393;DHT22;10857;52.228;21.026;2023-05-13T08:33:31;20.40;85.70
21393;DHT22;10857;52.228;21.026;2023-05-13T08:36:32;20.40;83.00
21393;DHT22;10857;52.228;21.026;2023-05-13T08:39:08;20.50;82.70
21393;DHT22;10857;52.228;21.026;2023-05-13T08:41:38;20.60;83.60
21393;DHT22;10857;52.228;21.026;2023-05-13T08:44:25;20.60;81.40
21393;DHT22;10857;52.228;21.026;2023-05-13T08:49:52;20.80;78.70
21393;DHT22;10857;52.228;21.026;2023-05-13T08:52:23;20.90;78.60
21393;DHT22;10857;52.228;21.026;2023-05-13T08:54:58;20.90;78.60
21393;DHT22;10857;52.228;21.026;2023-05-13T08:57:31;20.80;76.60
21393;DHT22;10857;52.228;21.026;2023-05-13T09:00:13;20.70;75.70
21393;DHT22;10857;52.228;21.026;2023-05-13T09:02:49;20.90;74.80
21393;DHT22;10857;52.228;21.026;2023-05-13T09:05:18;20.90;72.10
21393;DHT22;10857;52.228;21.026;2023-05-13T09:07:47;21.20;70.80
21393;DHT22;10857;52.228;21.026;2023-05-13T09:10:16;21.30;69.30
21393;DHT22;10857;52.228;21.026;2023-05-13T09:12:53;21.30;67.60
21393;DHT22;10857;52.228;21.026;2023-05-13T09:15:27;21.30;67.50
21393;DHT22;10857;52.228;21.026;2023-05-13T09:18:04;21.30;68.90
21393;DHT22;10857;52.228;21.026;2023-05-13T09:20:34;21.40;69.20
21393;DHT22;10857;52.228;21.026;2023-05-13T09:23:07;21.40;68.70
21393;DHT22;10857;52.228;21.026;2023-05-13T09:25:36;21.40;68.90
21393;DHT22;10857;52.228;21.026;2023-05-13T09:28:07;21.50;68.50
21393;DHT22;10857;52.228;21.026;2023-05-13T09:30:39;21.60;69.00
21393;DHT22;10857;52.228;21.026;2023-05-13T09:33:19;21.80;67.70
21393;DHT22;10857;52.228;21.026;2023-05-13T09:35:54;21.90;67.20
21393;DHT22;10857;52.228;21.026;2023-05-13T09:38:28;21.80;65.80
21393;DHT22;10857;52.228;21.026;2023-05-13T09:41:01;21.80;66.20
21393;DHT22;10857;52.228;21.026;2023-05-13T09:43:33;21.80;65.60
21393;DHT22;10857;52.228;21.026;2023-05-13T09:46:02;21.80;65.40
21393;DHT22;10857;52.228;21.026;2023-05-13T09:48:33;21.70;63.40
21393;DHT22;10857;52.228;21.026;2023-05-13T09:51:02;21.60;63.90
21393;DHT22;10857;52.228;21.026;2023-05-13T09:53:30;21.50;65.40
21393;DHT22;10857;52.228;21.026;2023-05-13T09:56:00;21.50;64.90
21393;DHT22;10857;52.228;21.026;2023-05-13T09:58:27;21.80;65.40
21393;DHT22;10857;52.228;21.026;2023-05-13T10:00:57;21.90;64.50
21393;DHT22;10857;52.228;21.026;2023-05-13T10:03:28;22.00;65.50
21393;DHT22;10857;52.228;21.026;2023-05-13T10:05:59;22.20;65.50
21393;DHT22;10857;52.228;21.026;2023-05-13T10:08:29;22.10;65.30
21393;DHT22;10857;52.228;21.026;2023-05-13T10:11:04;22.00;65.70
21393;DHT22;10857;52.228;21.026;2023-05-13T10:16:48;22.20;66.20
21393;DHT22;10857;52.228;21.026;2023-05-13T10:19:20;22.30;65.40
21393;DHT22;10857;52.228;21.026;2023-05-13T10:21:52;22.40;66.00
21393;DHT22;10857;52.228;21.026;2023-05-13T10:24:23;22.50;66.30
21393;DHT22;10857;52.228;21.026;2023-05-13T10:27:02;22.60;65.70
21393;DHT22;10857;52.228;21.026;2023-05-13T10:29:39;22.60;65.00
21393;DHT22;10857;52.228;21.026;2023-05-13T10:32:29;22.70;65.60
21393;DHT22;10857;52.228;21.026;2023-05-13T10:35:16;22.70;65.70
21393;DHT22;10857;52.228;21.026;2023-05-13T10:38:20;22.60;67.00
21393;DHT22;10857;52.228;21.026;2023-05-13T10:41:29;22.60;66.60
21393;DHT22;10857;52.228;21.026;2023-05-13T10:44:04;22.60;66.40
21393;DHT22;10857;52.228;21.026;2023-05-13T10:46:35;22.60;65.90
21393;DHT22;10857;52.228;21.026;2023-05-13T10:49:13;22.60;65.00
21393;DHT22;10857;52.228;21.026;2023-05-13T10:51:45;22.70;65.00
21393;DHT22;10857;52.228;21.026;2023-05-13T10:54:20;22.80;65.50
21393;DHT22;10857;52.228;21.026;2023-05-13T10:56:59;22.70;64.30
21393;DHT22;10857;52.228;21.026;2023-05-13T11:00:28;22.70;64.40
21393;DHT22;10857;52.228;21.026;2023-05-13T11:03:14;22.50;63.20
21393;DHT22;10857;52.228;21.026;2023-05-13T11:06:00;22.50;63.90
21393;DHT22;10857;52.228;21.026;2023-05-13T11:08:51;22.50;62.50
21393;DHT22;10857;52.228;21.026;2023-05-13T11:11:28;22.50;63.40
21393;DHT22;10857;52.228;21.026;2023-05-13T11:14:20;22.50;63.60
21393;DHT22;10857;52.228;21.026;2023-05-13T11:19:44;22.40;63.90
21393;DHT22;10857;52.228;21.026;2023-05-13T11:22:20;22.40;64.40
21393;DHT22;10857;52.228;21.026;2023-05-13T11:25:09;22.10;63.80
21393;DHT22;10857;52.228;21.026;2023-05-13T11:27:43;22.10;64.80
21393;DHT22;10857;52.228;21.026;2023-05-13T11:30:25;22.00;64.90
21393;DHT22;10857;52.228;21.026;2023-05-13T11:33:07;22.10;66.20
21393;DHT22;10857;52.228;21.026;2023-05-13T11:35:56;22.20;67.00
21393;DHT22;10857;52.228;21.026;2023-05-13T11:38:24;22.40;68.30
21393;DHT22;10857;52.228;21.026;2023-05-13T11:40:57;22.60;66.20
21393;DHT22;10857;52.228;21.026;2023-05-13T11:43:38;22.60;66.40
21393;DHT22;10857;52.228;21.026;2023-05-13T11:46:27;22.70;65.80
21393;DHT22;10857;52.228;21.026;2023-05-13T11:49:01;22.60;65.30
21393;DHT22;10857;52.228;21.026;2023-05-13T11:51:33;22.50;63.50
21393;DHT22;10857;52.228;21.026;2023-05-13T11:54:03;22.30;64.00
21393;DHT22;10857;52.228;21.026;2023-05-13T11:56:33;22.30;63.70
21393;DHT22;10857;52.228;21.026;2023-05-13T11:59:14;22.20;64.20
21393;DHT22;10857;52.228;21.026;2023-05-13T12:02:06;22.10;64.70
21393;DHT22;10857;52.228;21.026;2023-05-13T12:04:33;22.10;65.30
21393;DHT22;10857;52.228;21.026;2023-05-13T12:07:04;22.10;65.40
21393;DHT22;10857;52.228;21.026;2023-05-13T12:09:34;22.10;65.80
21393;DHT22;10857;52.228;21.026;2023-05-13T12:12:01;22.10;65.80
21393;DHT22;10857;52.228;21.026;2023-05-13T12:14:29;22.10;65.50
21393;DHT22;10857;52.228;21.026;2023-05-13T12:17:01;22.10;65.00
21393;DHT22;10857;52.228;21.026;2023-05-13T12:19:32;22.10;65.40
21393;DHT22;10857;52.228;21.026;2023-05-13T12:22:04;22.10;64.70
21393;DHT22;10857;52.228;21.026;2023-05-13T12:24:32;22.20;64.70
21393;DHT22;10857;52.228;21.026;2023-05-13T12:27:06;22.20;64.50
21393;DHT22;10857;52.228;21.026;2023-05-13T12:29:41;22.20;65.30
21393;DHT22;10857;52.228;21.026;2023-05-13T12:32:13;22.20;65.80
21393;DHT22;10857;52.228;21.026;2023-05-13T12:34:48;22.20;65.50
21393;DHT22;10857;52.228;21.026;2023-05-13T12:37:26;22.20;64.90
21393;DHT22;10857;52.228;21.026;2023-05-13T12:40:13;22.20;63.70
21393;DHT22;10857;52.228;21.026;2023-05-13T12:42:44;22.30;65.50
21393;DHT22;10857;52.228;21.026;2023-05-13T12:45:11;22.30;65.50
21393;DHT22;10857;52.228;21.026;2023-05-13T12:47:53;22.30;64.40
21393;DHT22;10857;52.228;21.026;2023-05-13T12:50:23;22.40;63.90
21393;DHT22;10857;52.228;21.026;2023-05-13T12:52:53;22.40;65.00
21393;DHT22;10857;52.228;21.026;2023-05-13T12:55:43;22.40;65.20
21393;DHT22;10857;52.228;21.026;2023-05-13T12:58:36;22.50;62.80
21393;DHT22;10857;52.228;21.026;2023-05-13T13:01:24;22.60;62.50
21393;DHT22;10857;52.228;21.026;2023-05-13T13:04:23;22.50;62.00
21393;DHT22;10857;52.228;21.026;2023-05-13T13:07:15;22.60;62.10
21393;DHT22;10857;52.228;21.026;2023-05-13T13:10:13;22.80;62.90
21393;DHT22;10857;52.228;21.026;2023-05-13T13:12:52;22.80;62.60
21393;DHT22;10857;52.228;21.026;2023-05-13T13:15:32;22.80;63.30
21393;DHT22;10857;52.228;21.026;2023-05-13T13:18:37;22.90;63.20
21393;DHT22;10857;52.228;21.026;2023-05-13T13:21:15;22.80;62.00
21393;DHT22;10857;52.228;21.026;2023-05-13T13:23:44;22.80;62.90
21393;DHT22;10857;52.228;21.026;2023-05-13T13:26:31;22.80;62.50
21393;DHT22;10857;52.228;21.026;2023-05-13T13:29:07;22.60;61.70
21393;DHT22;10857;52.228;21.026;2023-05-13T13:31:51;22.50;62.90
21393;DHT22;10857;52.228;21.026;2023-05-13T13:34:18;22.30;62.30
21393;DHT22;10857;52.228;21.026;2023-05-13T13:36:48;22.20;62.80
21393;DHT22;10857;52.228;21.026;2023-05-13T13:39:20;22.10;63.40
21393;DHT22;10857;52.228;21.026;2023-05-13T13:42:11;22.10;63.60
21393;DHT22;10857;52.228;21.026;2023-05-13T13:44:42;22.10;63.30
21393;DHT22;10857;52.228;21.026;2023-05-13T13:47:16;22.10;63.80
21393;DHT22;10857;52.228;21.026;2023-05-13T13:49:47;22.10;64.00
21393;DHT22;10857;52.228;21.026;2023-05-13T13:52:16;22.10;64.60
21393;DHT22;10857;52.228;21.026;2023-05-13T13:54:44;22.10;64.90
21393;DHT22;10857;52.228;21.026;2023-05-13T13:57:27;22.10;65.50
21393;DHT22;10857;52.228;21.026;2023-05-13T13:59:55;22.10;65.10
21393;DHT22;10857;52.228;21.026;2023-05-13T14:02:26;22.20;64.50
21393;DHT22;10857;52.228;21.026;2023-05-13T14:04:55;22.20;64.70
21393;DHT22;10857;52.228;21.026;2023-05-13T14:07:29;22.40;65.00
21393;DHT22;10857;52.228;21.026;2023-05-13T14:10:03;22.50;64.80
21393;DHT22;10857;52.228;21.026;2023-05-13T14:12:37;22.50;65.50
21393;DHT22;10857;52.228;21.026;2023-05-13T14:15:11;22.50;67.00
21393;DHT22;10857;52.228;21.026;2023-05-13T14:17:52;22.20;66.20
21393;DHT22;10857;52.228;21.026;2023-05-13T14:20:20;22.30;66.70
21393;DHT22;10857;52.228;21.026;2023-05-13T14:22:51;22.30;66.20
21393;DHT22;10857;52.228;21.026;2023-05-13T14:27:48;22.40;65.60
21393;DHT22;10857;52.228;21.026;2023-05-13T14:30:25;22.30;64.80
21393;DHT22;10857;52.228;21.026;2023-05-13T14:35:32;22.40;65.80
21393;DHT22;10857;52.228;21.026;2023-05-13T14:38:09;22.30;66.60
21393;DHT22;10857;52.228;21.026;2023-05-13T14:40:38;22.30;66.10
21393;DHT22;10857;52.228;21.026;2023-05-13T14:43:09;22.30;66.00
21393;DHT22;10857;52.228;21.026;2023-05-13T14:45:47;22.20;65.80
21393;DHT22;10857;52.228;21.026;2023-05-13T14:48:24;22.30;66.60
21393;DHT22;10857;52.228;21.026;2023-05-13T14:51:03;22.20;66.40
21393;DHT22;10857;52.228;21.026;2023-05-13T14:53:41;22.20;65.80
21393;DHT22;10857;52.228;21.026;2023-05-13T14:56:17;22.20;65.50
21393;DHT22;10857;52.228;21.026;2023-05-13T14:58:47;22.20;66.20
21393;DHT22;10857;52.228;21.026;2023-05-13T15:01:18;22.20;65.60
21393;DHT22;10857;52.228;21.026;2023-05-13T15:03:48;22.40;66.70
21393;DHT22;10857;52.228;21.026;2023-05-13T15:06:18;22.40;65.90
21393;DHT22;10857;52.228;21.026;2023-05-13T15:08:47;22.50;66.70
21393;DHT22;10857;52.228;21.026;2023-05-13T15:11:16;22.50;66.20
21393;DHT22;10857;52.228;21.026;2023-05-13T15:13:54;22.60;66.60
21393;DHT22;10857;52.228;21.026;2023-05-13T15:16:25;22.60;66.40
21393;DHT22;10857;52.228;21.026;2023-05-13T15:18:53;22.60;66.50
21393;DHT22;10857;52.228;21.026;2023-05-13T15:21:20;22.50;66.30
21393;DHT22;10857;52.228;21.026;2023-05-13T15:23:49;22.20;67.50
21393;DHT22;10857;52.228;21.026;2023-05-13T15:26:19;22.10;68.60
21393;DHT22;10857;52.228;21.026;2023-05-13T15:28:48;21.90;70.20
21393;DHT22;10857;52.228;21.026;2023-05-13T15:31:17;21.80;70.90
21393;DHT22;10857;52.228;21.026;2023-05-13T15:34:11;21.70;71.90
21393;DHT22;10857;52.228;21.026;2023-05-13T15:37:07;21.50;72.70
21393;DHT22;10857;52.228;21.026;2023-05-13T15:39:40;21.30;72.60
21393;DHT22;10857;52.228;21.026;2023-05-13T15:42:13;21.30;72.40
21393;DHT22;10857;52.228;21.026;2023-05-13T15:44:41;21.30;71.90
21393;DHT22;10857;52.228;21.026;2023-05-13T15:47:18;21.20;72.30
21393;DHT22;10857;52.228;21.026;2023-05-13T15:49:56;21.20;72.70
21393;DHT22;10857;52.228;21.026;2023-05-13T15:52:46;21.30;71.60
21393;DHT22;10857;52.228;21.026;2023-05-13T15:57:54;21.10;70.30
21393;DHT22;10857;52.228;21.026;2023-05-13T16:00:26;21.10;69.40
21393;DHT22;10857;52.228;21.026;2023-05-13T16:03:12;21.20;70.10
21393;DHT22;10857;52.228;21.026;2023-05-13T16:05:42;21.50;70.00
21393;DHT22;10857;52.228;21.026;2023-05-13T16:08:12;21.80;67.90
21393;DHT22;10857;52.228;21.026;2023-05-13T16:10:43;22.00;69.20
21393;DHT22;10857;52.228;21.026;2023-05-13T16:13:12;22.40;70.20
21393;DHT22;10857;52.228;21.026;2023-05-13T16:15:41;22.20;66.60
21393;DHT22;10857;52.228;21.026;2023-05-13T16:18:20;22.10;66.60
21393;DHT22;10857;52.228;21.026;2023-05-13T16:20:51;21.90;67.10
21393;DHT22;10857;52.228;21.026;2023-05-13T16:23:19;21.80;67.10
21393;DHT22;10857;52.228;21.026;2023-05-13T16:25:51;21.80;67.40
21393;DHT22;10857;52.228;21.026;2023-05-13T16:28:20;21.70;67.40
21393;DHT22;10857;52.228;21.026;2023-05-13T16:30:47;21.80;67.30
21393;DHT22;10857;52.228;21.026;2023-05-13T16:33:16;22.00;67.20
21393;DHT22;10857;52.228;21.026;2023-05-13T16:35:53;22.20;67.40
21393;DHT22;10857;52.228;21.026;2023-05-13T16:38:31;22.50;68.00